Date,TemperatureHighF,TemperatureAvgF,TemperatureLowF,DewpointHighF,DewpointAvgF,DewpointLowF,HumidityHigh,HumidityAvg,HumidityLow,PressureMaxIn,PressureMinIn,WindSpeedMaxMPH,WindSpeedAvgMPH,GustSpeedMaxMPH,PrecipitationSumIn
2013-3-1,58.3,44.0,32.5,20.8,12.7,-5.1,45,28,17,30.49,30.27,17,4,24,0.00
2013-3-2,59.6,49.6,37.3,27.0,13.0,1.9,37,24,11,30.32,30.13,12,3,17,0.00
2013-3-3,54.7,49.5,44.1,25.3,12.0,-2.7,41,23,13,30.14,29.86,19,7,33,0.00
2013-3-4,46.8,40.6,29.3,28.0,18.3,5.9,69,43,21,30.11,29.81,6,2,19,0.00
2013-3-5,55.8,43.3,30.3,24.9,21.4,19.0,69,43,25,30.21,30.06,17,4,29,0.00
2013-3-6,56.4,47.9,42.1,27.2,22.1,12.5,46,36,27,30.06,29.89,17,8,31,0.00
2013-3-7,54.4,44.6,36.2,26.8,19.9,12.0,57,38,20,29.94,29.83,26,5,49,0.00
2013-3-8,40.6,32.9,23.3,33.5,28.4,20.3,100,85,55,29.90,29.68,38,18,69,0.08
2013-3-9,27.9,25.0,22.6,24.8,22.6,20.0,94,90,87,30.20,29.89,17,5,36,0.00
2013-3-10,37.1,30.5,25.0,27.7,24.0,20.4,95,78,52,30.31,30.18,16,8,25,0.11
2013-3-11,49.3,41.5,29.5,31.1,15.1,0.4,66,37,17,30.31,30.09,8,3,13,0.00
2013-3-12,62.4,45.8,33.6,29.1,18.3,0.7,68,36,16,30.15,30.05,7,1,14,0.00
2013-3-13,60.9,46.8,32.3,27.6,23.1,17.9,70,43,22,30.26,30.14,7,1,16,0.00
2013-3-14,63.8,54.0,46.2,22.6,17.9,12.9,34,24,16,30.19,30.06,11,2,20,0.00
2013-3-15,66.4,56.3,47.4,24.1,18.0,10.1,32,23,11,30.07,29.87,11,3,23,0.00
2013-3-16,60.5,53.0,45.9,25.5,18.5,9.1,39,26,16,29.87,29.71,16,7,31,0.00
2013-3-17,55.3,48.7,43.4,24.8,21.3,16.5,44,34,22,29.91,29.74,21,6,37,0.00
2013-3-18,59.5,48.1,41.1,24.1,17.9,12.9,46,31,16,29.98,29.87,10,3,19,0.00
2013-3-19,55.0,44.7,34.2,27.5,23.8,18.9,67,45,25,30.09,29.89,8,2,25,0.00
2013-3-20,59.1,49.5,40.6,27.7,22.1,16.9,48,34,24,30.08,29.85,12,4,18,0.00
2013-3-21,55.3,48.7,44.2,29.2,23.3,17.7,49,37,24,29.85,29.69,15,8,28,0.00
2013-3-22,52.7,46.0,40.6,29.5,25.7,22.9,64,45,35,29.78,29.65,15,8,30,0.00
2013-3-23,50.8,42.7,37.8,30.6,12.2,1.0,68,31,16,29.99,29.76,10,4,25,0.00
2013-3-24,51.3,42.0,35.4,11.7,4.4,-7.5,35,21,12,30.01,29.92,11,4,20,0.00
2013-3-25,54.4,44.6,35.0,17.7,13.5,6.0,38,28,21,30.05,29.95,10,3,18,0.00
2013-3-26,59.0,50.7,41.3,18.1,13.2,9.7,31,22,15,30.01,29.87,17,4,33,0.00
2013-3-27,57.6,49.7,43.9,21.7,16.2,10.6,34,26,21,29.98,29.84,18,6,32,0.00
2013-3-28,61.5,50.3,44.2,27.1,20.8,13.9,45,32,19,30.04,29.92,11,4,25,0.00
2013-3-29,60.2,51.8,43.4,31.8,20.8,9.7,54,30,19,30.06,29.99,11,6,22,0.00
2013-3-30,58.0,51.2,44.0,28.3,19.0,10.5,44,29,19,30.05,29.91,11,4,20,0.00
2013-3-31,66.6,48.3,34.8,27.0,23.4,17.1,66,40,22,30.07,29.95,3,1,10,0.00